Startline

Run For Women

Vancouver, BC - 11 mai 2019

ÉpreuveRangTemps officiel DossardNomDivision Rang/sexeRang/division Puce
10K 10/493 0:46:40 53895 COTE, Joan F6069 7/416 1/45 0:44:46
10K 33/493 0:52:56 1242 KEEGAN, Sandy F6069 18/416 2/45 0:52:44
10K 34/493 0:52:57 1245 MCKAY, Marilyn F6069 19/416 3/45 0:52:45
10K 82/493 0:58:18 1734 WESTACOTT, Judy F6069 56/416 4/45 0:58:16
10K 92/493 0:58:58 1470 HUSTON, Trish F6069 62/416 5/45 0:58:47
10K 111/493 1:00:48 1624 VAN ZANTEN, Laurel F6069 75/416 6/45 0:59:40
10K 156/493 1:03:57 1309 ANSELMO, Kathy F6069 110/416 7/45 1:02:46
10K 197/493 1:06:15 53533 WONG, Valerie F6069 150/416 8/45 1:04:32
10K 202/493 1:06:46 1342 ENDERS, Bev F6069 155/416 9/45 1:05:25
10K 219/493 1:07:26 1405 COUGHLIN, Sandra F6069 171/416 10/45 1:06:11
10K 224/493 1:07:37 1498 LAUZON, Karen F6069 176/416 11/45 1:06:22
10K 243/493 1:08:47 1416 DION, Debra F6069 193/416 12/45 1:07:34
10K 245/493 1:08:55 1237 WOLINSKY, Sandra F6069 194/416 13/45 1:08:44
10K 256/493 1:09:59 1634 WATKINS, Donna F6069 202/416 14/45 1:09:40
10K 278/493 1:11:34 1353 BRYAN, Leslie F6069 221/416 15/45 1:11:13
10K 301/493 1:13:20 1639 WILSON, Lois F6069 241/416 16/45 1:11:41
10K 302/493 1:13:20 1575 RICHARDSON, Donna F6069 242/416 17/45 1:11:41
10K 304/493 1:13:26 1712 COLLINGRIDGE, Donna F6069 244/416 18/45 1:13:19
10K 309/493 1:13:35 1397 CIAMARRA, Tina F6069 248/416 19/45 1:13:11
10K 319/493 1:14:09 1633 WATERS, Moya F6069 257/416 20/45 1:13:47
10K 336/493 1:15:34 1577 RIGBY, Zara F6069 273/416 21/45 1:14:22
10K 337/493 1:15:35 1576 RICHARDSON, Marilyn F6069 274/416 22/45 1:15:24
10K 347/493 1:16:15 1593 SCOTT, Lianne F6069 284/416 23/45 1:16:09
10K 349/493 1:16:31 1617 THOMAS, Nada F6069 286/416 24/45 1:16:15
10K 359/493 1:17:45 1643 YELLAND, Sylvia F6069 295/416 25/45 1:17:40
10K 365/493 1:18:33 1160 DEWAR, Janet F6069 300/416 26/45 1:17:18
10K 371/493 1:19:48 1447 GRAMMETBAUER, Lillian F6069 305/416 27/45 1:19:29
10K 381/493 1:20:19 1535 MILHOLM, Deborah F6069 313/416 28/45 1:18:48
10K 383/493 1:21:06 1373 BOLGER, Lorraine F6069 315/416 29/45 1:19:42
10K 410/493 1:23:39 1191 LANGHAM, Barb F6069 341/416 30/45 1:22:25
10K 411/493 1:23:54 1533 METCALFE, Ann F6069 342/416 31/45 1:22:29
10K 413/493 1:24:06 1439 FRASER, Kathy F6069 344/416 32/45 1:22:47
10K 446/493 1:30:25 1248 SVAHN, Marianne F6069 375/416 33/45 1:30:12
10K 451/493 1:31:13 1382 BUNTON, Ann F6069 380/416 34/45 1:29:29
10K 453/493 1:31:35 1197 CROFT, Debra F6069 382/416 35/45 1:29:45
10K 457/493 1:33:01 1413 DEROUIN, Mary-Joyce F6069 386/416 36/45 1:31:17
10K 458/493 1:33:57 1581 ROCKWELL, Terri F6069 387/416 37/45 1:32:46
10K 461/493 1:34:16 1652 WITTMANN, Lani F6069 389/416 38/45 1:33:05
10K 472/493 1:40:15 1395 CHISHOLM, Sue F6069 397/416 39/45 1:40:10
10K 477/493 1:44:01 1632 WALTERS, Marianne F6069 402/416 40/45 1:43:15
10K 482/493 1:46:12 1613 TABLOTNEY, Debbie F6069 406/416 41/45 1:35:21
10K 487/493 1:49:12 1404 CORMIER, Julie F6069 410/416 42/45 1:47:29
10K 489/493 1:49:42 1614 TAYLOR, Barbara F6069 412/416 43/45 1:48:32
10K 491/493 1:50:16 1435 FOOT, Deborah F6069 414/416 44/45 1:48:30
10K 492/493 1:50:17 1591 SCHOULTZ, Geraldine F6069 415/416 45/45 1:48:30